sensor_id;sensor_type;location;lat;lon;timestamp;pressure;altitude;pressure_sealevel;temperature;humidity
33151;BME280;19508;42.578;23.416;2022-12-20T00:01:47;95449.75;;;1.10;65.34
33151;BME280;19508;42.578;23.416;2022-12-20T00:04:12;95460.06;;;0.87;65.87
33151;BME280;19508;42.578;23.416;2022-12-20T00:06:38;95454.59;;;0.89;65.97
33151;BME280;19508;42.578;23.416;2022-12-20T00:09:05;95462.50;;;0.80;65.86
33151;BME280;19508;42.578;23.416;2022-12-20T00:11:32;95455.75;;;0.68;65.75
33151;BME280;19508;42.578;23.416;2022-12-20T00:13:58;95457.94;;;0.73;65.90
33151;BME280;19508;42.578;23.416;2022-12-20T00:16:25;95466.56;;;0.75;66.33
33151;BME280;19508;42.578;23.416;2022-12-20T00:18:58;95474.28;;;1.04;65.92
33151;BME280;19508;42.578;23.416;2022-12-20T00:21:24;95472.09;;;0.81;65.94
33151;BME280;19508;42.578;23.416;2022-12-20T00:23:51;95472.78;;;0.83;65.56
33151;BME280;19508;42.578;23.416;2022-12-20T00:26:19;95464.53;;;0.87;66.04
33151;BME280;19508;42.578;23.416;2022-12-20T00:28:45;95474.09;;;0.62;65.98
33151;BME280;19508;42.578;23.416;2022-12-20T00:31:14;95475.69;;;0.54;66.35
33151;BME280;19508;42.578;23.416;2022-12-20T00:33:43;95484.91;;;0.50;66.28
33151;BME280;19508;42.578;23.416;2022-12-20T00:36:09;95461.59;;;0.54;65.89
33151;BME280;19508;42.578;23.416;2022-12-20T00:38:35;95463.66;;;0.60;65.96
33151;BME280;19508;42.578;23.416;2022-12-20T00:41:13;95470.53;;;0.53;66.41
33151;BME280;19508;42.578;23.416;2022-12-20T00:43:39;95467.50;;;0.48;66.42
33151;BME280;19508;42.578;23.416;2022-12-20T00:46:05;95474.31;;;0.33;66.99
33151;BME280;19508;42.578;23.416;2022-12-20T00:48:32;95467.50;;;0.30;66.79
33151;BME280;19508;42.578;23.416;2022-12-20T00:51:02;95468.41;;;0.39;66.73
33151;BME280;19508;42.578;23.416;2022-12-20T00:53:28;95468.34;;;0.48;66.19
33151;BME280;19508;42.578;23.416;2022-12-20T00:55:53;95443.88;;;0.37;66.12
33151;BME280;19508;42.578;23.416;2022-12-20T00:58:19;95456.53;;;0.43;66.32
33151;BME280;19508;42.578;23.416;2022-12-20T01:00:44;95469.78;;;0.43;66.89
33151;BME280;19508;42.578;23.416;2022-12-20T01:03:10;95468.94;;;0.42;67.00
33151;BME280;19508;42.578;23.416;2022-12-20T01:05:36;95476.59;;;0.27;67.01
33151;BME280;19508;42.578;23.416;2022-12-20T01:08:02;95468.41;;;0.39;67.12
33151;BME280;19508;42.578;23.416;2022-12-20T01:10:28;95477.78;;;0.33;66.78
33151;BME280;19508;42.578;23.416;2022-12-20T01:12:54;95475.28;;;0.32;66.83
33151;BME280;19508;42.578;23.416;2022-12-20T01:15:19;95466.16;;;0.44;66.73
33151;BME280;19508;42.578;23.416;2022-12-20T01:17:46;95462.59;;;0.53;66.36
33151;BME280;19508;42.578;23.416;2022-12-20T01:20:12;95463.44;;;0.36;66.27
33151;BME280;19508;42.578;23.416;2022-12-20T01:22:37;95467.44;;;0.40;66.57
33151;BME280;19508;42.578;23.416;2022-12-20T01:25:03;95454.09;;;0.32;66.49
33151;BME280;19508;42.578;23.416;2022-12-20T01:27:29;95458.13;;;0.36;65.75
33151;BME280;19508;42.578;23.416;2022-12-20T01:29:54;95450.16;;;0.18;66.55
33151;BME280;19508;42.578;23.416;2022-12-20T01:32:20;95454.84;;;0.24;66.38
33151;BME280;19508;42.578;23.416;2022-12-20T01:34:45;95431.63;;;0.00;66.74
33151;BME280;19508;42.578;23.416;2022-12-20T01:37:11;95444.63;;;0.11;66.23
33151;BME280;19508;42.578;23.416;2022-12-20T01:39:36;95445.91;;;0.07;66.16
33151;BME280;19508;42.578;23.416;2022-12-20T01:42:02;95439.03;;;0.14;65.70
33151;BME280;19508;42.578;23.416;2022-12-20T01:46:53;95426.16;;;0.19;65.65
33151;BME280;19508;42.578;23.416;2022-12-20T01:49:32;95432.47;;;0.18;65.63
33151;BME280;19508;42.578;23.416;2022-12-20T01:52:25;95436.38;;;0.32;65.33
33151;BME280;19508;42.578;23.416;2022-12-20T01:54:57;95428.91;;;0.27;65.41
33151;BME280;19508;42.578;23.416;2022-12-20T01:57:30;95426.31;;;0.18;65.70
33151;BME280;19508;42.578;23.416;2022-12-20T01:59:59;95425.84;;;0.05;66.00
33151;BME280;19508;42.578;23.416;2022-12-20T02:02:25;95419.72;;;0.04;65.83
33151;BME280;19508;42.578;23.416;2022-12-20T02:04:51;95411.38;;;0.17;65.44
33151;BME280;19508;42.578;23.416;2022-12-20T02:07:20;95405.50;;;0.05;65.99
33151;BME280;19508;42.578;23.416;2022-12-20T02:09:47;95401.66;;;0.17;65.49
33151;BME280;19508;42.578;23.416;2022-12-20T02:12:23;95402.75;;;0.15;65.31
33151;BME280;19508;42.578;23.416;2022-12-20T02:20:42;95395.66;;;0.15;64.87
33151;BME280;19508;42.578;23.416;2022-12-20T02:29:09;95404.34;;;0.08;64.01
33151;BME280;19508;42.578;23.416;2022-12-20T02:31:52;95398.22;;;0.07;64.18
33151;BME280;19508;42.578;23.416;2022-12-20T02:34:21;95401.41;;;0.11;63.67
33151;BME280;19508;42.578;23.416;2022-12-20T02:36:49;95403.91;;;0.12;64.19
33151;BME280;19508;42.578;23.416;2022-12-20T02:39:15;95403.75;;;-0.04;64.64
33151;BME280;19508;42.578;23.416;2022-12-20T02:41:52;95405.66;;;0.04;64.38
33151;BME280;19508;42.578;23.416;2022-12-20T02:44:22;95399.69;;;0.02;64.62
33151;BME280;19508;42.578;23.416;2022-12-20T02:47:11;95400.03;;;0.07;64.42
33151;BME280;19508;42.578;23.416;2022-12-20T02:49:39;95396.38;;;-0.10;63.98
33151;BME280;19508;42.578;23.416;2022-12-20T02:52:07;95398.13;;;-0.01;63.76
33151;BME280;19508;42.578;23.416;2022-12-20T02:54:33;95398.75;;;-0.07;63.90
33151;BME280;19508;42.578;23.416;2022-12-20T02:57:04;95391.72;;;-0.16;63.83
33151;BME280;19508;42.578;23.416;2022-12-20T02:59:40;95386.91;;;-0.31;64.07
33151;BME280;19508;42.578;23.416;2022-12-20T03:02:08;95386.69;;;-0.37;63.88
33151;BME280;19508;42.578;23.416;2022-12-20T03:04:37;95386.91;;;-0.31;64.14
33151;BME280;19508;42.578;23.416;2022-12-20T03:07:06;95390.16;;;-0.37;63.83
33151;BME280;19508;42.578;23.416;2022-12-20T03:09:33;95377.44;;;-0.51;64.46
33151;BME280;19508;42.578;23.416;2022-12-20T03:11:59;95380.81;;;-0.59;64.47
33151;BME280;19508;42.578;23.416;2022-12-20T03:14:24;95378.44;;;-0.62;64.76
33151;BME280;19508;42.578;23.416;2022-12-20T03:16:51;95391.06;;;-0.73;65.15
33151;BME280;19508;42.578;23.416;2022-12-20T03:19:16;95385.44;;;-0.70;65.09
33151;BME280;19508;42.578;23.416;2022-12-20T03:21:41;95389.03;;;-0.62;64.97
33151;BME280;19508;42.578;23.416;2022-12-20T03:24:07;95383.00;;;-0.81;65.47
33151;BME280;19508;42.578;23.416;2022-12-20T03:26:35;95387.63;;;-0.83;65.30
33151;BME280;19508;42.578;23.416;2022-12-20T03:29:01;95379.69;;;-0.83;65.20
33151;BME280;19508;42.578;23.416;2022-12-20T03:31:26;95382.25;;;-1.01;65.27
33151;BME280;19508;42.578;23.416;2022-12-20T03:33:52;95373.66;;;-1.13;65.59
33151;BME280;19508;42.578;23.416;2022-12-20T03:36:17;95384.66;;;-1.08;65.48
33151;BME280;19508;42.578;23.416;2022-12-20T03:38:48;95372.28;;;-1.17;65.31
33151;BME280;19508;42.578;23.416;2022-12-20T03:41:13;95371.16;;;-1.15;65.48
33151;BME280;19508;42.578;23.416;2022-12-20T03:43:41;95385.66;;;-1.19;65.55
33151;BME280;19508;42.578;23.416;2022-12-20T03:46:07;95387.84;;;-1.14;65.86
33151;BME280;19508;42.578;23.416;2022-12-20T03:48:32;95390.69;;;-1.25;65.92
33151;BME280;19508;42.578;23.416;2022-12-20T03:50:58;95387.59;;;-1.21;66.08
33151;BME280;19508;42.578;23.416;2022-12-20T03:53:23;95373.16;;;-1.26;65.75
33151;BME280;19508;42.578;23.416;2022-12-20T03:55:49;95381.47;;;-1.21;65.99
33151;BME280;19508;42.578;23.416;2022-12-20T03:58:14;95379.28;;;-1.26;65.74
33151;BME280;19508;42.578;23.416;2022-12-20T04:00:39;95376.78;;;-1.27;66.34
33151;BME280;19508;42.578;23.416;2022-12-20T04:03:05;95367.59;;;-1.33;65.93
33151;BME280;19508;42.578;23.416;2022-12-20T04:05:30;95360.56;;;-1.52;66.54
33151;BME280;19508;42.578;23.416;2022-12-20T04:07:56;95371.81;;;-1.50;66.46
33151;BME280;19508;42.578;23.416;2022-12-20T04:10:21;95363.19;;;-1.52;66.75
33151;BME280;19508;42.578;23.416;2022-12-20T04:12:47;95350.84;;;-1.61;66.58
33151;BME280;19508;42.578;23.416;2022-12-20T04:15:12;95361.81;;;-1.65;66.65
33151;BME280;19508;42.578;23.416;2022-12-20T04:17:37;95346.56;;;-1.81;66.53
33151;BME280;19508;42.578;23.416;2022-12-20T04:20:05;95362.69;;;-1.84;67.11
33151;BME280;19508;42.578;23.416;2022-12-20T04:22:47;95361.28;;;-1.98;67.78
33151;BME280;19508;42.578;23.416;2022-12-20T04:25:13;95352.13;;;-2.04;68.12
33151;BME280;19508;42.578;23.416;2022-12-20T04:27:39;95351.84;;;-2.10;68.63
33151;BME280;19508;42.578;23.416;2022-12-20T04:30:04;95349.63;;;-2.24;69.61
33151;BME280;19508;42.578;23.416;2022-12-20T04:32:30;95342.00;;;-2.18;69.15
33151;BME280;19508;42.578;23.416;2022-12-20T04:34:55;95351.03;;;-2.01;68.51
33151;BME280;19508;42.578;23.416;2022-12-20T04:37:21;95353.25;;;-1.96;68.01
33151;BME280;19508;42.578;23.416;2022-12-20T04:39:46;95349.91;;;-1.99;68.36
33151;BME280;19508;42.578;23.416;2022-12-20T04:42:11;95364.06;;;-2.00;68.17
33151;BME280;19508;42.578;23.416;2022-12-20T04:44:37;95352.69;;;-2.19;68.40
33151;BME280;19508;42.578;23.416;2022-12-20T04:47:02;95356.31;;;-2.20;68.88
33151;BME280;19508;42.578;23.416;2022-12-20T04:49:27;95351.56;;;-2.17;68.60
33151;BME280;19508;42.578;23.416;2022-12-20T04:51:53;95342.97;;;-2.19;68.67
33151;BME280;19508;42.578;23.416;2022-12-20T04:54:18;95344.63;;;-2.18;68.46
33151;BME280;19508;42.578;23.416;2022-12-20T04:56:44;95346.72;;;-2.12;68.96
33151;BME280;19508;42.578;23.416;2022-12-20T04:59:09;95347.69;;;-2.13;69.03
33151;BME280;19508;42.578;23.416;2022-12-20T05:01:36;95338.38;;;-2.17;68.60
33151;BME280;19508;42.578;23.416;2022-12-20T05:04:02;95324.34;;;-2.37;68.52
33151;BME280;19508;42.578;23.416;2022-12-20T05:06:27;95345.47;;;-2.37;68.50
33151;BME280;19508;42.578;23.416;2022-12-20T05:08:53;95341.00;;;-2.56;69.31
33151;BME280;19508;42.578;23.416;2022-12-20T05:11:19;95338.22;;;-2.54;69.19
33151;BME280;19508;42.578;23.416;2022-12-20T05:13:44;95334.16;;;-2.58;69.89
33151;BME280;19508;42.578;23.416;2022-12-20T05:16:10;95340.19;;;-2.46;70.07
33151;BME280;19508;42.578;23.416;2022-12-20T05:18:35;95344.34;;;-2.34;69.64
33151;BME280;19508;42.578;23.416;2022-12-20T05:21:01;95341.84;;;-2.36;69.29
33151;BME280;19508;42.578;23.416;2022-12-20T05:23:45;95348.94;;;-2.36;69.24
33151;BME280;19508;42.578;23.416;2022-12-20T05:26:33;95342.38;;;-2.51;69.13
33151;BME280;19508;42.578;23.416;2022-12-20T05:28:58;95339.31;;;-2.57;69.52
33151;BME280;19508;42.578;23.416;2022-12-20T05:31:24;95340.69;;;-2.62;70.19
33151;BME280;19508;42.578;23.416;2022-12-20T05:33:49;95342.75;;;-2.66;69.88
33151;BME280;19508;42.578;23.416;2022-12-20T05:36:15;95342.19;;;-2.79;70.08
33151;BME280;19508;42.578;23.416;2022-12-20T05:38:40;95346.94;;;-2.73;70.31
33151;BME280;19508;42.578;23.416;2022-12-20T05:41:06;95344.00;;;-2.79;69.88
33151;BME280;19508;42.578;23.416;2022-12-20T05:43:31;95348.16;;;-2.77;70.08
33151;BME280;19508;42.578;23.416;2022-12-20T05:45:57;95353.16;;;-2.74;70.05
33151;BME280;19508;42.578;23.416;2022-12-20T05:48:22;95346.66;;;-2.70;69.63
33151;BME280;19508;42.578;23.416;2022-12-20T05:50:51;95347.34;;;-2.58;69.75
33151;BME280;19508;42.578;23.416;2022-12-20T05:53:16;95351.81;;;-2.59;69.57
33151;BME280;19508;42.578;23.416;2022-12-20T05:55:47;95354.44;;;-2.59;69.67
33151;BME280;19508;42.578;23.416;2022-12-20T05:58:13;95350.28;;;-2.51;69.40
33151;BME280;19508;42.578;23.416;2022-12-20T06:00:42;95345.44;;;-2.46;69.01
33151;BME280;19508;42.578;23.416;2022-12-20T06:03:09;95359.31;;;-2.44;68.34
33151;BME280;19508;42.578;23.416;2022-12-20T06:05:40;95355.19;;;-2.37;68.48
33151;BME280;19508;42.578;23.416;2022-12-20T06:08:07;95358.66;;;-2.37;67.93
33151;BME280;19508;42.578;23.416;2022-12-20T06:10:34;95354.19;;;-2.56;68.32
33151;BME280;19508;42.578;23.416;2022-12-20T06:13:03;95349.59;;;-2.53;68.29
33151;BME280;19508;42.578;23.416;2022-12-20T06:15:29;95356.97;;;-2.47;68.54
33151;BME280;19508;42.578;23.416;2022-12-20T06:17:55;95356.81;;;-2.56;68.61
33151;BME280;19508;42.578;23.416;2022-12-20T06:20:21;95362.06;;;-2.65;68.90
33151;BME280;19508;42.578;23.416;2022-12-20T06:22:46;95356.25;;;-2.59;68.97
33151;BME280;19508;42.578;23.416;2022-12-20T06:25:12;95353.59;;;-2.59;68.83
33151;BME280;19508;42.578;23.416;2022-12-20T06:27:39;95359.31;;;-2.44;68.34
33151;BME280;19508;42.578;23.416;2022-12-20T06:30:05;95354.06;;;-2.25;68.07
33151;BME280;19508;42.578;23.416;2022-12-20T06:32:32;95355.72;;;-2.14;67.50
33151;BME280;19508;42.578;23.416;2022-12-20T06:34:57;95344.34;;;-2.15;66.89
33151;BME280;19508;42.578;23.416;2022-12-20T06:37:23;95351.03;;;-2.01;67.02
33151;BME280;19508;42.578;23.416;2022-12-20T06:39:48;95358.63;;;-1.88;66.19
33151;BME280;19508;42.578;23.416;2022-12-20T06:42:14;95347.81;;;-1.85;65.91
33151;BME280;19508;42.578;23.416;2022-12-20T06:44:39;95354.91;;;-1.76;65.77
33151;BME280;19508;42.578;23.416;2022-12-20T06:47:05;95351.22;;;-1.56;65.66
33151;BME280;19508;42.578;23.416;2022-12-20T06:49:30;95342.31;;;-1.55;65.43
33151;BME280;19508;42.578;23.416;2022-12-20T06:51:55;95345.94;;;-1.46;64.80
33151;BME280;19508;42.578;23.416;2022-12-20T06:54:21;95351.78;;;-1.43;65.95
33151;BME280;19508;42.578;23.416;2022-12-20T06:56:46;95343.22;;;-1.17;64.95
33151;BME280;19508;42.578;23.416;2022-12-20T06:59:12;95344.22;;;-1.28;63.99
33151;BME280;19508;42.578;23.416;2022-12-20T07:01:37;95346.53;;;-1.15;63.90
33151;BME280;19508;42.578;23.416;2022-12-20T07:04:03;95335.66;;;-1.02;63.60
33151;BME280;19508;42.578;23.416;2022-12-20T07:06:28;95337.44;;;-1.03;63.46
33151;BME280;19508;42.578;23.416;2022-12-20T07:08:54;95328.81;;;-1.05;63.27
33151;BME280;19508;42.578;23.416;2022-12-20T07:11:19;95320.63;;;-1.02;63.19
33151;BME280;19508;42.578;23.416;2022-12-20T07:13:45;95325.44;;;-0.97;63.57
33151;BME280;19508;42.578;23.416;2022-12-20T07:16:10;95323.16;;;-0.82;63.09
33151;BME280;19508;42.578;23.416;2022-12-20T07:18:36;95335.00;;;-0.59;62.85
33151;BME280;19508;42.578;23.416;2022-12-20T07:21:03;95326.25;;;-0.60;62.42
33151;BME280;19508;42.578;23.416;2022-12-20T07:23:29;95325.31;;;-0.68;62.89
33151;BME280;19508;42.578;23.416;2022-12-20T07:25:56;95320.72;;;-0.48;62.41
33151;BME280;19508;42.578;23.416;2022-12-20T07:28:22;95325.88;;;-0.47;62.47
33151;BME280;19508;42.578;23.416;2022-12-20T07:30:48;95313.31;;;-0.27;61.98
33151;BME280;19508;42.578;23.416;2022-12-20T07:33:13;95324.06;;;-0.11;60.77
33151;BME280;19508;42.578;23.416;2022-12-20T07:35:39;95308.72;;;-0.07;60.57
33151;BME280;19508;42.578;23.416;2022-12-20T07:38:04;95321.63;;;0.14;60.41
33151;BME280;19508;42.578;23.416;2022-12-20T07:40:30;95313.53;;;0.15;60.49
33151;BME280;19508;42.578;23.416;2022-12-20T07:42:55;95323.59;;;0.12;60.30
33151;BME280;19508;42.578;23.416;2022-12-20T07:45:21;95315.13;;;0.08;59.78
33151;BME280;19508;42.578;23.416;2022-12-20T07:47:46;95315.44;;;0.05;60.25
33151;BME280;19508;42.578;23.416;2022-12-20T07:50:11;95319.88;;;0.22;59.37
33151;BME280;19508;42.578;23.416;2022-12-20T07:52:38;95313.88;;;0.38;59.27
33151;BME280;19508;42.578;23.416;2022-12-20T07:55:06;95304.72;;;0.59;59.64
33151;BME280;19508;42.578;23.416;2022-12-20T07:57:51;95306.25;;;0.61;58.78
33151;BME280;19508;42.578;23.416;2022-12-20T08:00:19;95307.44;;;0.67;58.97
33151;BME280;19508;42.578;23.416;2022-12-20T08:02:59;95301.63;;;0.63;57.75
33151;BME280;19508;42.578;23.416;2022-12-20T08:05:25;95299.72;;;0.81;57.76
33151;BME280;19508;42.578;23.416;2022-12-20T08:07:51;95295.84;;;1.02;57.62
33151;BME280;19508;42.578;23.416;2022-12-20T08:10:20;95293.63;;;1.23;57.16
33151;BME280;19508;42.578;23.416;2022-12-20T08:12:46;95294.25;;;1.17;56.47
33151;BME280;19508;42.578;23.416;2022-12-20T08:15:13;95293.94;;;1.20;56.66
33151;BME280;19508;42.578;23.416;2022-12-20T08:17:38;95293.53;;;1.49;55.99
33151;BME280;19508;42.578;23.416;2022-12-20T08:20:04;95284.09;;;1.55;55.56
33151;BME280;19508;42.578;23.416;2022-12-20T08:22:31;95284.94;;;1.63;54.98
33151;BME280;19508;42.578;23.416;2022-12-20T08:24:56;95289.13;;;1.74;55.22
33151;BME280;19508;42.578;23.416;2022-12-20T08:27:22;95283.84;;;1.98;54.26
33151;BME280;19508;42.578;23.416;2022-12-20T08:29:47;95292.81;;;2.14;53.94
33151;BME280;19508;42.578;23.416;2022-12-20T08:32:14;95293.94;;;2.44;52.28
33151;BME280;19508;42.578;23.416;2022-12-20T08:34:40;95293.13;;;2.43;52.10
33151;BME280;19508;42.578;23.416;2022-12-20T08:37:05;95285.16;;;2.35;52.28
33151;BME280;19508;42.578;23.416;2022-12-20T08:39:31;95272.75;;;2.91;52.10
33151;BME280;19508;42.578;23.416;2022-12-20T08:41:56;95279.56;;;3.33;50.07
33151;BME280;19508;42.578;23.416;2022-12-20T08:44:21;95282.81;;;3.51;48.75
33151;BME280;19508;42.578;23.416;2022-12-20T08:46:47;95281.41;;;3.63;48.53
33151;BME280;19508;42.578;23.416;2022-12-20T08:49:12;95272.31;;;3.81;48.37
33151;BME280;19508;42.578;23.416;2022-12-20T08:51:38;95266.81;;;3.82;48.54
33151;BME280;19508;42.578;23.416;2022-12-20T08:54:03;95263.38;;;3.74;48.43
33151;BME280;19508;42.578;23.416;2022-12-20T08:56:28;95275.53;;;3.99;48.07
33151;BME280;19508;42.578;23.416;2022-12-20T08:58:54;95273.41;;;4.55;46.40
33151;BME280;19508;42.578;23.416;2022-12-20T09:01:20;95273.69;;;4.60;46.16
33151;BME280;19508;42.578;23.416;2022-12-20T09:03:46;95277.03;;;4.92;45.72
33151;BME280;19508;42.578;23.416;2022-12-20T09:06:19;95264.44;;;5.30;44.64
33151;BME280;19508;42.578;23.416;2022-12-20T09:08:46;95262.22;;;4.89;44.72
33151;BME280;19508;42.578;23.416;2022-12-20T09:11:20;95248.13;;;5.10;44.89
33151;BME280;19508;42.578;23.416;2022-12-20T09:13:48;95246.41;;;4.88;44.80
33151;BME280;19508;42.578;23.416;2022-12-20T09:16:16;95246.22;;;5.55;43.83
33151;BME280;19508;42.578;23.416;2022-12-20T09:18:42;95240.94;;;5.25;43.69
33151;BME280;19508;42.578;23.416;2022-12-20T09:21:09;95239.81;;;5.34;43.25
33151;BME280;19508;42.578;23.416;2022-12-20T09:23:36;95227.97;;;5.73;42.75
33151;BME280;19508;42.578;23.416;2022-12-20T09:26:07;95222.72;;;5.65;42.32
33151;BME280;19508;42.578;23.416;2022-12-20T09:28:33;95225.50;;;5.93;41.86
33151;BME280;19508;42.578;23.416;2022-12-20T09:31:04;95220.38;;;5.41;42.65
33151;BME280;19508;42.578;23.416;2022-12-20T09:33:31;95212.06;;;5.50;43.18
33151;BME280;19508;42.578;23.416;2022-12-20T09:35:58;95219.25;;;5.50;42.59
33151;BME280;19508;42.578;23.416;2022-12-20T09:38:24;95220.41;;;5.62;42.51
33151;BME280;19508;42.578;23.416;2022-12-20T09:40:55;95211.44;;;6.06;41.73
33151;BME280;19508;42.578;23.416;2022-12-20T09:43:21;95210.66;;;6.12;41.24
33151;BME280;19508;42.578;23.416;2022-12-20T09:45:50;95203.53;;;5.98;41.21
33151;BME280;19508;42.578;23.416;2022-12-20T09:48:43;95203.78;;;6.24;40.21
33151;BME280;19508;42.578;23.416;2022-12-20T09:51:19;95192.59;;;6.70;39.93
33151;BME280;19508;42.578;23.416;2022-12-20T09:56:31;95184.59;;;7.11;38.57
33151;BME280;19508;42.578;23.416;2022-12-20T09:59:03;95189.75;;;6.22;39.53
33151;BME280;19508;42.578;23.416;2022-12-20T10:01:33;95189.25;;;6.61;39.00
33151;BME280;19508;42.578;23.416;2022-12-20T10:04:04;95180.09;;;6.77;38.82
33151;BME280;19508;42.578;23.416;2022-12-20T10:17:42;95145.47;;;8.04;36.63
33151;BME280;19508;42.578;23.416;2022-12-20T10:20:26;95153.44;;;7.64;36.16
33151;BME280;19508;42.578;23.416;2022-12-20T10:25:53;95143.81;;;7.16;37.87
33151;BME280;19508;42.578;23.416;2022-12-20T10:28:25;95123.38;;;7.08;37.89
33151;BME280;19508;42.578;23.416;2022-12-20T10:30:51;95120.13;;;6.71;38.02
33151;BME280;19508;42.578;23.416;2022-12-20T10:33:20;95107.81;;;6.77;38.85
33151;BME280;19508;42.578;23.416;2022-12-20T10:35:46;95109.03;;;6.81;38.62
33151;BME280;19508;42.578;23.416;2022-12-20T10:38:14;95098.22;;;6.55;38.86
33151;BME280;19508;42.578;23.416;2022-12-20T10:40:47;95095.31;;;6.56;38.47
33151;BME280;19508;42.578;23.416;2022-12-20T10:43:23;95092.28;;;6.66;38.51
33151;BME280;19508;42.578;23.416;2022-12-20T10:46:06;95082.59;;;6.65;38.58
33151;BME280;19508;42.578;23.416;2022-12-20T10:48:38;95078.03;;;6.52;38.91
33151;BME280;19508;42.578;23.416;2022-12-20T10:54:01;95068.88;;;6.33;38.52
33151;BME280;19508;42.578;23.416;2022-12-20T10:56:32;95066.13;;;6.61;38.33
33151;BME280;19508;42.578;23.416;2022-12-20T10:59:32;95066.66;;;6.91;37.87
33151;BME280;19508;42.578;23.416;2022-12-20T11:01:59;95059.28;;;6.52;38.27
33151;BME280;19508;42.578;23.416;2022-12-20T11:04:30;95053.50;;;6.48;38.34
33151;BME280;19508;42.578;23.416;2022-12-20T11:06:57;95060.75;;;7.09;37.86
33151;BME280;19508;42.578;23.416;2022-12-20T11:12:04;95044.75;;;7.69;36.47
33151;BME280;19508;42.578;23.416;2022-12-20T11:14:33;95044.78;;;7.95;36.68
33151;BME280;19508;42.578;23.416;2022-12-20T11:17:03;95037.56;;;7.76;36.42
33151;BME280;19508;42.578;23.416;2022-12-20T11:28:07;95028.84;;;8.27;34.55
33151;BME280;19508;42.578;23.416;2022-12-20T11:30:36;95014.47;;;7.81;34.43
33151;BME280;19508;42.578;23.416;2022-12-20T11:33:37;95019.00;;;7.81;35.02
33151;BME280;19508;42.578;23.416;2022-12-20T11:36:14;95021.03;;;7.59;34.87
33151;BME280;19508;42.578;23.416;2022-12-20T11:38:49;95019.13;;;7.06;36.12
33151;BME280;19508;42.578;23.416;2022-12-20T11:44:05;95015.03;;;6.49;37.82
33151;BME280;19508;42.578;23.416;2022-12-20T11:55:14;95000.84;;;5.86;38.72
33151;BME280;19508;42.578;23.416;2022-12-20T12:03:27;95002.16;;;5.69;39.39
33151;BME280;19508;42.578;23.416;2022-12-20T12:06:25;94994.34;;;5.96;39.70
33151;BME280;19508;42.578;23.416;2022-12-20T12:09:25;94989.72;;;5.55;40.23
33151;BME280;19508;42.578;23.416;2022-12-20T12:12:03;94996.81;;;5.41;40.25
33151;BME280;19508;42.578;23.416;2022-12-20T12:14:50;94992.16;;;5.50;40.10
33151;BME280;19508;42.578;23.416;2022-12-20T12:17:28;94982.53;;;5.27;40.90
33151;BME280;19508;42.578;23.416;2022-12-20T12:25:41;94979.63;;;5.22;41.14
33151;BME280;19508;42.578;23.416;2022-12-20T12:28:10;94981.75;;;5.33;41.10
33151;BME280;19508;42.578;23.416;2022-12-20T12:30:40;94981.56;;;5.63;40.75
33151;BME280;19508;42.578;23.416;2022-12-20T12:33:14;94974.28;;;5.78;39.83
33151;BME280;19508;42.578;23.416;2022-12-20T12:35:51;94981.66;;;5.76;39.39
33151;BME280;19508;42.578;23.416;2022-12-20T12:38:44;94985.31;;;5.69;39.88
33151;BME280;19508;42.578;23.416;2022-12-20T12:46:09;94972.38;;;5.72;40.06
33151;BME280;19508;42.578;23.416;2022-12-20T12:48:41;94984.09;;;5.71;39.18
33151;BME280;19508;42.578;23.416;2022-12-20T12:51:09;94977.38;;;5.54;40.00
33151;BME280;19508;42.578;23.416;2022-12-20T12:53:51;94981.97;;;5.60;40.07
33151;BME280;19508;42.578;23.416;2022-12-20T12:59:19;94979.53;;;5.65;39.92
33151;BME280;19508;42.578;23.416;2022-12-20T13:11:50;94977.34;;;4.40;40.25
33151;BME280;19508;42.578;23.416;2022-12-20T13:27:36;94967.66;;;4.03;41.95
33151;BME280;19508;42.578;23.416;2022-12-20T13:40:42;94963.44;;;3.94;40.79
33151;BME280;19508;42.578;23.416;2022-12-20T13:43:24;94957.25;;;3.64;41.46
33151;BME280;19508;42.578;23.416;2022-12-20T13:49:02;94951.84;;;3.57;41.79
33151;BME280;19508;42.578;23.416;2022-12-20T13:51:30;94956.34;;;3.42;42.13
33151;BME280;19508;42.578;23.416;2022-12-20T13:54:00;94958.41;;;3.32;42.54
33151;BME280;19508;42.578;23.416;2022-12-20T13:59:02;94955.84;;;3.24;42.98
33151;BME280;19508;42.578;23.416;2022-12-20T14:01:28;94939.56;;;3.04;43.21
33151;BME280;19508;42.578;23.416;2022-12-20T14:03:55;94959.38;;;3.01;43.77
33151;BME280;19508;42.578;23.416;2022-12-20T14:06:22;94963.19;;;2.99;44.07
33151;BME280;19508;42.578;23.416;2022-12-20T14:08:50;94960.16;;;2.87;44.65
33151;BME280;19508;42.578;23.416;2022-12-20T14:11:17;94961.69;;;2.81;44.85
33151;BME280;19508;42.578;23.416;2022-12-20T14:13:51;94942.41;;;2.79;45.04
33151;BME280;19508;42.578;23.416;2022-12-20T14:16:18;94943.78;;;2.75;45.59
33151;BME280;19508;42.578;23.416;2022-12-20T14:21:23;94934.69;;;2.70;45.92
33151;BME280;19508;42.578;23.416;2022-12-20T14:23:50;94930.56;;;2.67;46.30
33151;BME280;19508;42.578;23.416;2022-12-20T14:26:38;94935.13;;;2.73;46.91
33151;BME280;19508;42.578;23.416;2022-12-20T14:29:10;94938.41;;;2.61;47.02
33151;BME280;19508;42.578;23.416;2022-12-20T14:31:41;94941.72;;;2.40;47.34
33151;BME280;19508;42.578;23.416;2022-12-20T14:36:37;94930.41;;;2.38;48.03
33151;BME280;19508;42.578;23.416;2022-12-20T14:39:38;94937.81;;;2.50;47.59
33151;BME280;19508;42.578;23.416;2022-12-20T14:44:33;94938.03;;;2.18;48.94
33151;BME280;19508;42.578;23.416;2022-12-20T14:47:21;94930.50;;;2.21;49.13
33151;BME280;19508;42.578;23.416;2022-12-20T14:57:43;94936.84;;;1.89;50.73
33151;BME280;19508;42.578;23.416;2022-12-20T15:05:47;94928.78;;;1.75;51.75
33151;BME280;19508;42.578;23.416;2022-12-20T15:08:16;94925.28;;;1.74;51.65
33151;BME280;19508;42.578;23.416;2022-12-20T15:13:44;94919.38;;;1.64;52.30
33151;BME280;19508;42.578;23.416;2022-12-20T15:16:23;94919.53;;;1.62;51.89
33151;BME280;19508;42.578;23.416;2022-12-20T15:18:52;94917.91;;;1.45;52.46
33151;BME280;19508;42.578;23.416;2022-12-20T15:21:30;94928.53;;;1.45;52.60
33151;BME280;19508;42.578;23.416;2022-12-20T15:23:59;94925.03;;;1.45;52.50
33151;BME280;19508;42.578;23.416;2022-12-20T15:26:27;94930.22;;;1.38;52.70